Time;durP1;ratioP1;P1;durP2;ratioP2;P2;SDS_P1;SDS_P2;PMS_P1;PMS_P2;Temp;Humidity;BMP_temperature;BMP_pressure;BME280_temperature;BME280_humidity;BME280_pressure;Samples;Min_cycle;Max_cycle;Signal;HPM_P1;HPM_P2
2022/09/22 00:02:17;;;;;;;2.80;2.60;;;10.20;99.90;;;;;;5254572;28;20180;-47
2022/09/22 00:04:48;;;;;;;2.43;2.33;;;10.20;99.90;;;;;;5269010;28;20419;-49
2022/09/22 00:07:18;;;;;;;2.17;2.07;;;10.20;99.90;;;;;;5260304;28;20569;-49
2022/09/22 00:09:49;;;;;;;2.70;2.50;;;10.10;99.90;;;;;;5260882;28;20186;-47
2022/09/22 00:12:20;;;;;;;2.03;1.93;;;10.10;99.90;;;;;;5241628;28;20188;-49
2022/09/22 00:14:51;;;;;;;1.80;1.80;;;10.00;99.90;;;;;;5251318;28;20210;-50
2022/09/22 00:17:22;;;;;;;2.00;1.90;;;9.90;99.90;;;;;;5263136;28;20453;-48
2022/09/22 00:19:53;;;;;;;3.47;1.83;;;9.90;99.90;;;;;;5268278;28;20423;-48
2022/09/22 00:22:23;;;;;;;3.50;1.90;;;9.80;99.90;;;;;;5255546;28;20565;-47
2022/09/22 00:24:54;;;;;;;1.90;1.83;;;9.70;99.90;;;;;;5254773;28;20277;-48
2022/09/22 00:27:25;;;;;;;3.27;2.03;;;9.50;99.90;;;;;;5264733;28;20223;-49
2022/09/22 00:29:56;;;;;;;1.60;1.50;;;9.50;99.90;;;;;;5271784;28;20653;-47
2022/09/22 00:32:27;;;;;;;1.50;1.40;;;9.40;99.90;;;;;;5259865;28;20469;-49
2022/09/22 00:34:57;;;;;;;2.30;2.20;;;9.30;99.90;;;;;;5263185;28;20491;-48
2022/09/22 00:37:28;;;;;;;2.27;2.13;;;9.20;99.90;;;;;;5262593;28;20202;-48
2022/09/22 00:39:59;;;;;;;3.07;2.63;;;9.20;99.90;;;;;;5255270;28;20182;-47
2022/09/22 00:42:29;;;;;;;3.50;2.13;;;9.20;99.90;;;;;;5257464;28;20208;-48
2022/09/22 00:45:00;;;;;;;2.53;2.33;;;9.10;99.90;;;;;;5268945;28;20458;-48
2022/09/22 00:47:43;;;;;;;2.50;2.40;;;9.10;99.90;;;;;;5275834;28;20201;-50
2022/09/22 00:50:18;;;;;;;1.80;1.80;;;9.00;99.90;;;;;;5271664;28;20231;-48
2022/09/22 00:52:59;;;;;;;1.60;1.60;;;8.90;99.90;;;;;;5261274;28;20823;-48
2022/09/22 00:55:48;;;;;;;2.10;2.00;;;8.90;99.90;;;;;;5268506;28;20481;-47
2022/09/22 00:58:26;;;;;;;2.67;2.57;;;8.90;99.90;;;;;;5258998;28;20471;-49
2022/09/22 01:00:58;;;;;;;2.57;2.47;;;8.80;99.90;;;;;;5257855;28;20470;-48
2022/09/22 01:03:29;;;;;;;2.47;2.30;;;8.80;99.90;;;;;;5261950;28;20479;-48
2022/09/22 01:06:03;;;;;;;2.33;2.33;;;8.80;99.90;;;;;;5271639;28;20795;-47
2022/09/22 01:08:36;;;;;;;2.43;2.37;;;8.70;99.90;;;;;;5255148;28;20504;-48
2022/09/22 01:11:07;;;;;;;2.10;2.10;;;8.70;99.90;;;;;;5265821;28;20404;-50
2022/09/22 01:14:11;;;;;;;2.87;2.37;;;8.70;99.90;;;;;;5263438;28;20505;-48
2022/09/22 01:17:19;;;;;;;2.00;1.83;;;8.70;99.90;;;;;;5270722;28;20211;-48
2022/09/22 01:20:14;;;;;;;2.80;2.60;;;8.70;99.90;;;;;;5251817;28;20416;-49
2022/09/22 01:23:06;;;;;;;10.33;2.40;;;8.60;99.90;;;;;;5255213;28;20428;-49
2022/09/22 01:25:49;;;;;;;1.80;1.80;;;8.60;99.90;;;;;;5263807;28;20444;-47
2022/09/22 01:28:37;;;;;;;2.53;2.43;;;8.60;99.90;;;;;;5268048;28;20467;-48
2022/09/22 01:31:28;;;;;;;4.73;2.97;;;8.50;99.90;;;;;;5276926;28;20471;-47
2022/09/22 01:34:16;;;;;;;2.43;2.33;;;8.50;99.90;;;;;;5270644;28;20978;-49
2022/09/22 01:37:11;;;;;;;2.57;2.37;;;8.50;99.90;;;;;;5267900;28;20456;-47
2022/09/22 01:39:51;;;;;;;2.10;2.10;;;8.40;99.90;;;;;;5252750;28;20451;-49
2022/09/22 01:42:43;;;;;;;3.50;3.30;;;8.40;99.90;;;;;;5267866;28;20523;-49
2022/09/22 01:45:16;;;;;;;2.87;2.67;;;8.30;99.90;;;;;;5260037;28;20431;-48
2022/09/22 01:47:54;;;;;;;1.70;1.70;;;8.30;99.90;;;;;;5252614;28;20464;-48
2022/09/22 01:50:31;;;;;;;2.47;2.37;;;8.30;99.90;;;;;;5250884;28;20514;-49
2022/09/22 01:53:07;;;;;;;4.10;2.83;;;8.30;99.90;;;;;;5258410;28;20458;-48
2022/09/22 01:55:46;;;;;;;6.80;2.90;;;8.30;99.90;;;;;;5262731;28;20493;-47
2022/09/22 01:58:19;;;;;;;2.57;2.33;;;8.30;99.90;;;;;;5268513;28;20998;-49
2022/09/22 02:01:05;;;;;;;2.77;2.57;;;8.30;99.90;;;;;;5260481;28;20429;-48
2022/09/22 02:03:55;;;;;;;2.67;2.57;;;8.30;99.90;;;;;;5252539;28;20440;-48
2022/09/22 02:06:29;;;;;;;2.43;2.33;;;8.30;99.90;;;;;;5255124;28;22321;-50
2022/09/22 02:09:06;;;;;;;5.23;2.53;;;8.20;99.90;;;;;;5250992;28;20909;-48
2022/09/22 02:11:39;;;;;;;1.80;1.70;;;8.20;99.90;;;;;;5254211;28;20424;-49
2022/09/22 02:14:10;;;;;;;2.80;2.70;;;8.20;99.90;;;;;;5264250;28;20463;-47
2022/09/22 02:16:41;;;;;;;2.53;2.30;;;8.10;99.90;;;;;;5269185;28;20975;-48
2022/09/22 02:19:19;;;;;;;2.83;2.70;;;8.00;99.90;;;;;;5263972;28;20486;-46
2022/09/22 02:21:50;;;;;;;3.10;3.00;;;8.00;99.90;;;;;;5249354;28;20190;-48
2022/09/22 02:24:41;;;;;;;4.20;2.43;;;8.00;99.90;;;;;;5258295;28;20509;-48
2022/09/22 02:27:25;;;;;;;3.23;3.00;;;8.00;99.90;;;;;;5262373;28;20690;-49
2022/09/22 02:30:00;;;;;;;1.83;1.73;;;8.00;99.90;;;;;;5259671;28;20431;-46
2022/09/22 02:32:34;;;;;;;2.17;2.07;;;8.00;99.90;;;;;;5261946;28;20789;-48
2022/09/22 02:35:07;;;;;;;3.23;2.13;;;7.90;99.90;;;;;;5265787;28;20423;-47
2022/09/22 02:37:49;;;;;;;2.40;2.30;;;7.90;99.90;;;;;;5264477;28;21015;-49
2022/09/22 02:41:00;;;;;;;2.13;2.03;;;7.90;99.90;;;;;;5249134;28;20425;-48
2022/09/22 02:43:58;;;;;;;2.80;2.60;;;7.80;99.90;;;;;;5265033;28;20431;-48
2022/09/22 02:46:40;;;;;;;2.60;2.50;;;7.80;99.90;;;;;;5249990;28;20456;-49
2022/09/22 02:49:15;;;;;;;2.37;2.27;;;7.80;99.90;;;;;;5261905;28;20437;-49
2022/09/22 02:51:48;;;;;;;2.23;2.23;;;7.70;99.90;;;;;;5263290;28;20634;-48
2022/09/22 02:54:19;;;;;;;2.47;2.37;;;7.70;99.90;;;;;;5263891;28;20483;-48
2022/09/22 02:56:50;;;;;;;5.27;2.90;;;7.60;99.90;;;;;;5282682;28;20455;-50
2022/09/22 02:59:20;;;;;;;2.70;2.50;;;7.60;99.90;;;;;;5254921;28;20428;-48
2022/09/22 03:01:51;;;;;;;2.70;2.50;;;7.60;99.90;;;;;;5259408;28;20190;-49
2022/09/22 03:04:21;;;;;;;2.60;2.47;;;7.50;99.90;;;;;;5255981;28;20217;-49
2022/09/22 03:06:52;;;;;;;2.13;2.03;;;7.50;99.90;;;;;;5257967;28;20210;-49
2022/09/22 03:09:23;;;;;;;2.40;2.30;;;7.50;99.90;;;;;;5260118;28;20189;-49
2022/09/22 03:11:53;;;;;;;2.47;2.33;;;7.50;99.90;;;;;;5233774;28;20181;-49
2022/09/22 03:14:24;;;;;;;2.90;2.73;;;7.50;99.90;;;;;;5262510;28;20209;-51
2022/09/22 03:16:54;;;;;;;2.50;2.33;;;7.40;99.90;;;;;;5266703;28;20200;-50
2022/09/22 03:19:25;;;;;;;1.77;1.77;;;7.40;99.90;;;;;;5247072;28;20261;-48
2022/09/22 03:21:55;;;;;;;2.93;2.73;;;7.40;99.90;;;;;;5267379;28;20185;-48
2022/09/22 03:24:26;;;;;;;2.70;2.60;;;7.40;99.90;;;;;;5269458;28;20184;-48
2022/09/22 03:26:56;;;;;;;2.20;2.20;;;7.30;99.90;;;;;;5296796;23;20264;-49
2022/09/22 03:29:27;;;;;;;2.93;2.77;;;7.30;99.90;;;;;;5257364;28;20174;-51
2022/09/22 03:31:58;;;;;;;5.30;2.90;;;7.30;99.90;;;;;;5254333;28;20184;-49
2022/09/22 03:34:28;;;;;;;2.70;2.50;;;7.30;99.90;;;;;;5264140;28;20677;-50
2022/09/22 03:36:59;;;;;;;2.83;2.47;;;7.30;99.90;;;;;;5260035;28;20198;-51
2022/09/22 03:39:30;;;;;;;2.73;2.53;;;7.30;99.90;;;;;;5232475;28;20178;-50
2022/09/22 03:42:01;;;;;;;2.63;2.47;;;7.30;99.90;;;;;;5236911;28;20817;-50
2022/09/22 03:44:31;;;;;;;3.23;2.80;;;7.30;99.90;;;;;;5240040;28;20202;-50
2022/09/22 03:47:03;;;;;;;2.50;2.40;;;7.30;99.90;;;;;;5234941;28;20202;-51
2022/09/22 03:49:33;;;;;;;2.90;2.67;;;7.30;99.90;;;;;;5246192;28;20265;-50
2022/09/22 03:52:04;;;;;;;3.27;2.60;;;7.20;99.90;;;;;;5243590;28;21027;-50
2022/09/22 03:54:35;;;;;;;2.03;1.93;;;7.20;99.90;;;;;;5244661;28;20407;-50
2022/09/22 03:57:06;;;;;;;3.57;2.30;;;7.20;99.90;;;;;;5243389;28;20674;-51
2022/09/22 03:59:37;;;;;;;2.73;2.63;;;7.20;99.90;;;;;;5246053;28;20431;-51
2022/09/22 04:02:08;;;;;;;2.47;2.37;;;7.20;99.90;;;;;;5239297;28;20232;-51
2022/09/22 04:04:38;;;;;;;2.80;2.60;;;7.20;99.90;;;;;;5237727;28;20174;-51
2022/09/22 04:07:09;;;;;;;3.43;3.20;;;7.20;99.90;;;;;;5235816;28;20210;-50
2022/09/22 04:09:40;;;;;;;5.17;3.73;;;7.20;99.90;;;;;;5248080;28;20202;-50
2022/09/22 04:12:11;;;;;;;3.87;3.60;;;7.20;99.90;;;;;;5258887;28;20190;-49
2022/09/22 04:14:42;;;;;;;7.30;2.43;;;7.20;99.90;;;;;;5243417;28;20490;-50
2022/09/22 04:17:12;;;;;;;4.37;2.80;;;7.30;99.90;;;;;;5250957;28;20201;-50
2022/09/22 04:19:43;;;;;;;3.30;3.10;;;7.20;99.90;;;;;;5242030;28;20182;-50
2022/09/22 04:22:13;;;;;;;6.30;3.10;;;7.20;99.90;;;;;;5256074;28;20182;-50
2022/09/22 04:24:44;;;;;;;2.20;2.10;;;7.20;99.90;;;;;;5240742;28;20535;-50
2022/09/22 04:27:15;;;;;;;2.13;2.13;;;7.20;99.90;;;;;;5242512;28;20214;-50
2022/09/22 04:29:45;;;;;;;4.40;3.17;;;7.10;99.90;;;;;;5244996;28;20205;-51
2022/09/22 04:32:17;;;;;;;5.20;3.07;;;7.10;99.90;;;;;;5237297;28;20186;-50
2022/09/22 04:34:48;;;;;;;3.30;3.10;;;7.10;99.90;;;;;;5242063;28;20740;-51
2022/09/22 04:37:18;;;;;;;2.30;2.13;;;7.10;99.90;;;;;;5218593;28;20461;-50
2022/09/22 04:39:49;;;;;;;2.93;2.77;;;7.10;99.90;;;;;;5247119;28;20183;-50
2022/09/22 04:42:20;;;;;;;2.60;2.03;;;7.10;99.90;;;;;;5244473;28;20187;-50
2022/09/22 04:44:51;;;;;;;3.20;3.00;;;7.00;99.90;;;;;;5243277;28;20218;-50
2022/09/22 04:47:21;;;;;;;5.23;2.70;;;7.00;99.90;;;;;;5244511;28;20905;-51
2022/09/22 04:49:52;;;;;;;3.40;2.47;;;7.00;99.90;;;;;;5245995;28;20209;-51
2022/09/22 04:52:23;;;;;;;2.57;2.47;;;7.00;99.90;;;;;;5240546;28;20174;-49
2022/09/22 04:54:53;;;;;;;2.40;2.20;;;7.00;99.90;;;;;;5238965;28;20240;-51
2022/09/22 04:57:24;;;;;;;3.50;3.20;;;7.00;99.90;;;;;;5244182;28;20255;-51
2022/09/22 04:59:54;;;;;;;3.23;3.00;;;7.00;99.90;;;;;;5245391;28;20178;-50
2022/09/22 05:02:25;;;;;;;2.70;2.60;;;7.00;99.90;;;;;;5238911;28;20170;-50
2022/09/22 05:04:56;;;;;;;3.10;3.00;;;7.00;99.90;;;;;;5238588;28;20206;-50
2022/09/22 05:07:26;;;;;;;3.60;3.30;;;7.00;99.90;;;;;;5230352;28;20256;-51
2022/09/22 05:09:57;;;;;;;2.80;2.60;;;7.00;99.90;;;;;;5240303;28;20191;-50
2022/09/22 05:12:28;;;;;;;2.13;2.13;;;7.00;99.90;;;;;;5242565;28;20183;-50
2022/09/22 05:14:59;;;;;;;3.03;2.73;;;7.00;99.90;;;;;;5247265;28;20468;-50
2022/09/22 05:17:29;;;;;;;3.17;2.80;;;7.00;99.90;;;;;;5246939;28;20202;-50
2022/09/22 05:20:06;;;;;;;3.33;3.00;;;7.00;99.90;;;;;;5245138;28;20190;-50
2022/09/22 05:22:38;;;;;;;3.63;2.90;;;7.00;99.90;;;;;;5243408;28;20182;-51
2022/09/22 05:25:11;;;;;;;2.60;2.40;;;7.10;99.90;;;;;;5237227;28;20436;-50
2022/09/22 05:27:46;;;;;;;3.60;3.30;;;7.10;99.90;;;;;;5245162;28;20468;-49
2022/09/22 05:30:18;;;;;;;17.90;2.70;;;7.10;99.90;;;;;;5242251;28;20432;-50
2022/09/22 05:32:49;;;;;;;3.40;2.67;;;7.20;99.90;;;;;;5239689;28;20421;-50
2022/09/22 05:35:22;;;;;;;2.73;2.63;;;7.20;99.90;;;;;;5249823;28;20475;-48
2022/09/22 05:37:53;;;;;;;3.87;3.30;;;7.30;99.90;;;;;;5249005;28;20461;-50
2022/09/22 05:40:25;;;;;;;3.83;3.47;;;7.30;99.90;;;;;;5245158;28;20905;-50
2022/09/22 05:42:55;;;;;;;3.10;2.90;;;7.40;99.90;;;;;;5243079;28;20492;-51
2022/09/22 05:45:26;;;;;;;3.30;3.00;;;7.40;99.90;;;;;;5245058;28;20475;-50
2022/09/22 05:47:56;;;;;;;3.50;3.23;;;7.50;99.90;;;;;;5244834;28;20728;-50
2022/09/22 05:50:27;;;;;;;4.10;3.90;;;7.50;99.90;;;;;;5248989;28;20209;-49
2022/09/22 05:53:03;;;;;;;4.10;3.40;;;7.60;99.90;;;;;;5249553;28;20182;-49
2022/09/22 05:55:34;;;;;;;5.43;3.73;;;7.70;99.90;;;;;;5249018;28;20330;-51
2022/09/22 05:58:05;;;;;;;4.30;3.90;;;7.90;99.90;;;;;;5246744;28;20573;-50
2022/09/22 06:00:36;;;;;;;3.63;3.33;;;8.30;99.90;;;;;;5244439;28;20429;-50
2022/09/22 06:03:06;;;;;;;2.90;2.80;;;10.40;99.90;;;;;;5244395;28;20236;-51
2022/09/22 06:05:37;;;;;;;4.80;2.80;;;13.60;99.90;;;;;;5242715;28;20200;-52
2022/09/22 06:08:08;;;;;;;2.73;2.63;;;16.70;99.90;;;;;;5236810;28;20242;-52
2022/09/22 06:10:39;;;;;;;4.33;2.80;;;19.30;97.00;;;;;;5252532;28;20182;-51
2022/09/22 06:13:10;;;;;;;2.20;2.10;;;21.10;67.10;;;;;;5250033;28;20472;-51
2022/09/22 06:15:45;;;;;;;2.23;2.03;;;22.00;56.90;;;;;;5246742;28;20214;-52
2022/09/22 06:18:19;;;;;;;3.17;2.73;;;22.60;54.20;;;;;;5247562;28;20471;-50
2022/09/22 06:20:50;;;;;;;3.07;2.77;;;22.90;51.90;;;;;;5246721;28;20431;-52
2022/09/22 06:23:21;;;;;;;2.70;2.60;;;23.10;49.70;;;;;;5247451;28;20440;-51
2022/09/22 06:25:57;;;;;;;2.97;2.77;;;23.60;48.60;;;;;;5239539;28;20546;-52
2022/09/22 06:28:27;;;;;;;2.83;2.63;;;23.90;47.20;;;;;;5232803;28;20482;-52
2022/09/22 06:30:59;;;;;;;3.23;2.67;;;24.30;46.30;;;;;;5248259;28;20436;-51
2022/09/22 06:33:30;;;;;;;2.67;2.20;;;24.60;46.00;;;;;;5246305;28;20206;-51
2022/09/22 06:36:01;;;;;;;3.30;2.40;;;25.10;44.40;;;;;;5238464;28;20909;-49
2022/09/22 06:38:31;;;;;;;3.10;2.90;;;25.20;43.50;;;;;;5242649;28;20210;-52
2022/09/22 06:41:03;;;;;;;3.60;3.00;;;25.80;42.80;;;;;;5244812;28;20435;-52
2022/09/22 06:43:36;;;;;;;3.57;2.40;;;26.60;41.70;;;;;;5246961;28;20666;-52
2022/09/22 06:46:09;;;;;;;3.60;2.97;;;27.40;40.30;;;;;;5243946;28;20443;-51
2022/09/22 06:48:40;;;;;;;2.53;2.30;;;27.40;38.90;;;;;;5243999;28;21019;-52
2022/09/22 06:51:10;;;;;;;2.00;1.90;;;27.50;38.90;;;;;;5239617;28;20533;-54
2022/09/22 06:53:43;;;;;;;3.37;2.40;;;27.90;38.60;;;;;;5247805;28;20217;-51
2022/09/22 06:56:13;;;;;;;2.00;1.90;;;28.70;37.90;;;;;;5247560;28;20182;-50
2022/09/22 06:58:44;;;;;;;1.73;1.60;;;29.10;36.20;;;;;;5247437;28;20509;-52
2022/09/22 07:01:16;;;;;;;2.57;2.40;;;29.40;35.50;;;;;;5243011;28;20658;-51
2022/09/22 07:03:47;;;;;;;5.07;2.50;;;29.00;35.20;;;;;;5245654;28;20190;-52
2022/09/22 07:06:17;;;;;;;2.10;2.00;;;28.80;35.80;;;;;;5236611;28;20423;-52
2022/09/22 07:08:48;;;;;;;1.77;1.70;;;28.30;35.50;;;;;;5234600;28;20202;-51
2022/09/22 07:11:25;;;;;;;6.57;1.90;;;27.50;36.90;;;;;;5245812;28;20218;-52
2022/09/22 07:13:58;;;;;;;2.10;1.43;;;27.10;37.50;;;;;;5242581;28;20202;-50
2022/09/22 07:16:29;;;;;;;1.40;1.30;;;27.60;37.70;;;;;;5245578;28;20437;-52
2022/09/22 07:19:00;;;;;;;3.50;1.30;;;28.70;36.70;;;;;;5243466;28;20464;-51
2022/09/22 07:21:35;;;;;;;1.60;1.50;;;29.60;34.50;;;;;;5246043;28;20182;-52
2022/09/22 07:24:09;;;;;;;1.57;1.50;;;29.40;34.00;;;;;;5244861;28;20246;-52
2022/09/22 07:26:39;;;;;;;1.20;1.20;;;28.60;34.70;;;;;;5240166;28;20435;-52
2022/09/22 07:29:12;;;;;;;3.93;1.30;;;28.30;35.60;;;;;;5244405;28;20444;-50
2022/09/22 07:31:43;;;;;;;1.43;1.33;;;28.50;35.10;;;;;;5235303;28;20174;-52
2022/09/22 07:34:15;;;;;;;4.53;1.50;;;27.80;35.50;;;;;;5246555;28;20616;-52
2022/09/22 07:36:47;;;;;;;2.10;2.00;;;27.40;36.40;;;;;;5244927;28;20183;-51
2022/09/22 07:39:18;;;;;;;8.33;2.80;;;26.70;37.30;;;;;;5245858;28;20494;-52
2022/09/22 07:41:48;;;;;;;1.70;1.60;;;26.40;38.30;;;;;;5246090;28;20420;-51
2022/09/22 07:47:08;;;;;;;1.63;1.53;;;27.20;37.40;;;;;;5238935;28;20574;-51
2022/09/22 07:49:39;;;;;;;1.10;1.10;;;27.70;36.60;;;;;;5232290;28;20535;-51
2022/09/22 07:52:09;;;;;;;2.20;1.00;;;27.40;36.60;;;;;;5246358;28;20554;-52
2022/09/22 07:54:40;;;;;;;0.80;0.80;;;26.50;38.00;;;;;;5245785;28;20218;-51
2022/09/22 07:57:11;;;;;;;3.33;1.30;;;25.70;40.00;;;;;;5247043;28;20202;-50
2022/09/22 07:59:42;;;;;;;1.00;1.00;;;24.70;41.80;;;;;;5245955;28;20440;-51
2022/09/22 08:02:14;;;;;;;0.97;0.97;;;23.50;43.80;;;;;;5244390;28;20231;-51
2022/09/22 08:04:45;;;;;;;1.17;1.17;;;22.50;45.50;;;;;;5235761;28;20181;-52
2022/09/22 08:07:15;;;;;;;3.50;1.20;;;21.50;47.00;;;;;;5223576;28;20794;-52
2022/09/22 08:09:46;;;;;;;0.97;0.97;;;20.00;49.00;;;;;;5244124;28;20270;-52
2022/09/22 08:12:17;;;;;;;4.10;1.33;;;19.00;51.20;;;;;;5245331;28;20289;-51
2022/09/22 08:14:47;;;;;;;0.80;0.80;;;18.10;53.40;;;;;;5236530;28;20206;-51
2022/09/22 08:17:18;;;;;;;2.00;0.80;;;17.70;54.60;;;;;;5245407;28;20214;-52
2022/09/22 08:19:49;;;;;;;2.67;0.87;;;17.50;55.00;;;;;;5226834;28;20292;-51
2022/09/22 08:22:20;;;;;;;1.63;1.00;;;17.50;55.00;;;;;;5240496;28;20269;-51
2022/09/22 08:24:50;;;;;;;5.83;1.20;;;17.20;54.30;;;;;;5243105;28;20575;-50
2022/09/22 08:27:21;;;;;;;0.80;0.80;;;16.70;55.80;;;;;;5245033;28;20225;-51
2022/09/22 08:29:52;;;;;;;0.67;0.43;;;16.00;56.60;;;;;;5241407;28;20701;-51
2022/09/22 08:32:29;;;;;;;0.87;0.87;;;15.50;57.70;;;;;;5249214;28;20182;-51
2022/09/22 08:34:59;;;;;;;0.70;0.70;;;15.30;59.30;;;;;;5244598;28;20218;-51
2022/09/22 08:37:31;;;;;;;1.43;0.90;;;15.30;60.40;;;;;;5248911;28;20974;-51
2022/09/22 08:40:01;;;;;;;0.87;0.87;;;15.20;61.20;;;;;;5244907;28;20284;-51
2022/09/22 08:42:32;;;;;;;1.13;1.10;;;15.20;61.90;;;;;;5247733;28;21017;-52
2022/09/22 08:45:24;;;;;;;1.03;0.60;;;15.10;62.00;;;;;;5246629;28;20189;-51
2022/09/22 08:54:07;;;;;;;0.70;0.70;;;14.70;65.20;;;;;;5240356;28;20525;-51
2022/09/22 08:56:47;;;;;;;0.70;0.70;;;14.80;66.40;;;;;;5249115;28;20493;-52
2022/09/22 08:59:34;;;;;;;0.70;0.60;;;14.80;67.40;;;;;;5248654;28;20444;-52
2022/09/22 09:02:25;;;;;;;0.60;0.60;;;14.70;67.40;;;;;;5238394;28;20438;-51
2022/09/22 09:05:20;;;;;;;1.63;1.03;;;14.70;67.80;;;;;;5243977;28;20432;-50
2022/09/22 09:08:14;;;;;;;4.93;0.90;;;14.90;67.60;;;;;;5249458;28;20455;-51
2022/09/22 09:11:18;;;;;;;1.93;1.00;;;15.20;67.40;;;;;;5247351;28;20800;-52
2022/09/22 09:14:01;;;;;;;0.83;0.60;;;15.50;67.00;;;;;;5246192;28;20475;-52
2022/09/22 09:16:47;;;;;;;1.20;0.80;;;15.70;65.10;;;;;;5242744;28;20440;-51
2022/09/22 09:19:33;;;;;;;1.10;1.00;;;15.40;63.00;;;;;;5248240;28;20799;-51
2022/09/22 09:22:13;;;;;;;0.63;0.60;;;15.10;62.50;;;;;;5247162;28;20960;-52
2022/09/22 09:24:53;;;;;;;0.30;0.30;;;15.20;63.30;;;;;;5249523;28;20462;-51
2022/09/22 09:27:27;;;;;;;0.53;0.53;;;15.50;64.20;;;;;;5256013;22;21525;-50
2022/09/22 09:30:16;;;;;;;0.80;0.80;;;15.80;63.30;;;;;;5268926;28;20442;-49
2022/09/22 09:33:00;;;;;;;0.70;0.50;;;15.90;64.30;;;;;;5259651;28;20424;-49
2022/09/22 09:35:50;;;;;;;0.60;0.60;;;15.80;59.70;;;;;;5270380;28;20454;-48
2022/09/22 09:38:32;;;;;;;1.63;0.57;;;15.60;60.50;;;;;;5268957;28;20489;-48
2022/09/22 09:41:22;;;;;;;0.50;0.50;;;15.40;61.50;;;;;;5247220;28;20428;-50
2022/09/22 09:43:55;;;;;;;2.57;0.70;;;15.10;62.10;;;;;;5246418;28;20490;-48
2022/09/22 09:46:44;;;;;;;0.50;0.50;;;14.80;63.00;;;;;;5247589;28;20598;-48
2022/09/22 09:49:17;;;;;;;0.90;0.53;;;14.60;63.80;;;;;;5251024;28;20584;-50
2022/09/22 09:51:59;;;;;;;0.63;0.60;;;14.40;65.60;;;;;;5245737;28;20772;-48
2022/09/22 09:54:30;;;;;;;0.87;0.87;;;14.30;64.90;;;;;;5237019;28;20868;-49
2022/09/22 09:57:00;;;;;;;1.37;0.67;;;14.30;62.40;;;;;;5246309;28;20431;-49
2022/09/22 10:02:24;;;;;;;1.27;0.80;;;14.40;63.70;;;;;;5249087;28;20182;-50
2022/09/22 10:05:19;;;;;;;1.37;0.50;;;14.70;64.50;;;;;;5239542;28;20482;-52
2022/09/22 10:08:00;;;;;;;1.93;1.10;;;14.90;60.50;;;;;;5236633;28;20455;-49
2022/09/22 10:10:40;;;;;;;0.57;0.43;;;15.00;60.90;;;;;;5257392;28;20840;-49
2022/09/22 10:13:10;;;;;;;0.40;0.40;;;15.10;59.90;;;;;;5235771;28;20554;-49
2022/09/22 10:15:42;;;;;;;0.73;0.73;;;15.10;58.50;;;;;;5248427;28;20541;-52
2022/09/22 10:18:24;;;;;;;0.67;0.67;;;15.20;59.50;;;;;;5254564;28;20305;-52
2022/09/22 10:21:14;;;;;;;0.60;0.60;;;15.30;59.50;;;;;;5236908;28;20475;-53
2022/09/22 10:23:50;;;;;;;0.77;0.40;;;15.60;58.50;;;;;;5256999;28;20475;-47
2022/09/22 10:26:29;;;;;;;0.57;0.57;;;15.80;58.90;;;;;;5246793;28;20439;-46
2022/09/22 10:29:13;;;;;;;0.47;0.43;;;15.90;57.70;;;;;;5243811;28;20470;-47
2022/09/22 10:31:59;;;;;;;10.60;0.83;;;15.80;57.20;;;;;;5252068;28;20437;-48
2022/09/22 10:34:33;;;;;;;2.23;0.73;;;15.80;57.80;;;;;;5251213;28;20584;-48
2022/09/22 10:37:10;;;;;;;1.03;0.70;;;15.80;57.20;;;;;;5237379;28;20449;-47
2022/09/22 10:39:52;;;;;;;1.13;1.00;;;15.80;57.50;;;;;;5242360;28;20425;-48
2022/09/22 10:42:39;;;;;;;0.60;0.60;;;16.10;58.00;;;;;;5248132;28;20512;-47
2022/09/22 10:45:15;;;;;;;0.43;0.43;;;16.40;57.90;;;;;;5254245;28;20440;-47
2022/09/22 10:48:02;;;;;;;0.60;0.50;;;16.60;55.50;;;;;;5244187;28;20643;-48
2022/09/22 10:50:55;;;;;;;0.50;0.50;;;16.50;54.20;;;;;;5237923;28;20424;-46
2022/09/22 10:53:46;;;;;;;0.77;0.50;;;16.30;53.50;;;;;;5251976;28;20990;-48
2022/09/22 10:56:36;;;;;;;0.87;0.87;;;16.30;54.70;;;;;;5251716;28;20480;-49
2022/09/22 10:59:13;;;;;;;2.40;0.83;;;16.60;54.30;;;;;;5243148;28;20499;-49
2022/09/22 11:02:08;;;;;;;0.60;0.60;;;16.40;54.50;;;;;;5246178;28;20467;-50
2022/09/22 11:04:42;;;;;;;1.07;0.50;;;16.20;53.30;;;;;;5247234;28;20523;-49
2022/09/22 11:13:50;;;;;;;0.70;0.70;;;16.60;53.60;;;;;;5227895;28;20454;-47
2022/09/22 11:16:39;;;;;;;0.60;0.60;;;16.70;53.60;;;;;;5243374;28;20797;-47
2022/09/22 11:19:15;;;;;;;1.83;0.67;;;16.50;54.10;;;;;;5241643;28;20677;-46
2022/09/22 11:21:53;;;;;;;3.57;0.97;;;16.40;53.80;;;;;;5250360;28;20408;-47
2022/09/22 11:24:36;;;;;;;0.90;0.90;;;16.20;53.30;;;;;;5246464;28;20884;-46
2022/09/22 11:27:40;;;;;;;0.77;0.50;;;16.10;51.60;;;;;;5241640;28;20741;-47
2022/09/22 11:30:19;;;;;;;2.10;0.63;;;15.90;53.10;;;;;;5230653;28;20436;-47
2022/09/22 11:33:02;;;;;;;1.27;0.67;;;15.90;54.10;;;;;;5249528;28;20470;-47
2022/09/22 11:35:59;;;;;;;1.10;1.10;;;15.80;54.00;;;;;;5239608;28;20490;-46
2022/09/22 11:38:41;;;;;;;1.23;0.60;;;15.80;53.90;;;;;;5241248;28;20445;-54
2022/09/22 11:41:25;;;;;;;1.03;0.37;;;15.70;51.30;;;;;;5230206;28;20433;-48
2022/09/22 11:44:04;;;;;;;0.50;0.50;;;15.70;52.10;;;;;;5235545;28;20433;-46
2022/09/22 11:46:54;;;;;;;0.73;0.50;;;15.70;52.70;;;;;;5246171;28;20795;-48
2022/09/22 11:49:24;;;;;;;0.70;0.70;;;15.90;53.00;;;;;;5246368;28;20437;-47
2022/09/22 11:52:13;;;;;;;4.37;1.10;;;16.20;52.20;;;;;;5240924;28;20513;-47
2022/09/22 11:54:55;;;;;;;1.47;0.63;;;16.30;51.30;;;;;;5242387;28;20659;-47
2022/09/22 11:57:32;;;;;;;8.07;0.73;;;16.30;51.30;;;;;;5239193;28;20456;-47
2022/09/22 12:00:16;;;;;;;1.00;0.60;;;16.30;48.80;;;;;;5246758;28;20442;-46
2022/09/22 12:03:04;;;;;;;2.00;0.50;;;16.20;48.90;;;;;;5236901;28;20433;-53
2022/09/22 12:05:43;;;;;;;0.50;0.50;;;16.20;50.00;;;;;;5249841;28;20442;-53
2022/09/22 12:08:19;;;;;;;0.50;0.50;;;16.30;49.00;;;;;;5237447;28;20547;-52
2022/09/22 12:10:51;;;;;;;0.43;0.43;;;16.40;48.60;;;;;;5243608;28;20433;-52
2022/09/22 12:13:24;;;;;;;0.83;0.80;;;16.30;49.60;;;;;;5255989;28;20452;-52
2022/09/22 12:16:09;;;;;;;1.90;0.50;;;16.30;50.20;;;;;;5263567;28;20423;-53
2022/09/22 12:19:08;;;;;;;1.90;0.43;;;16.20;50.10;;;;;;5246356;28;20491;-52
2022/09/22 12:21:58;;;;;;;2.90;1.50;;;16.20;49.90;;;;;;5236093;28;20432;-53
2022/09/22 12:24:30;;;;;;;1.77;0.50;;;16.30;49.50;;;;;;5245031;28;20436;-51
2022/09/22 12:27:18;;;;;;;1.63;0.67;;;16.30;48.90;;;;;;5255022;28;20434;-53
2022/09/22 12:30:02;;;;;;;0.50;0.50;;;16.40;48.50;;;;;;5242878;28;20440;-52
2022/09/22 12:32:42;;;;;;;0.50;0.50;;;16.40;49.30;;;;;;5243201;28;20428;-54
2022/09/22 12:35:35;;;;;;;0.83;0.67;;;16.40;49.00;;;;;;5249479;28;20466;-50
2022/09/22 12:38:12;;;;;;;0.70;0.70;;;16.30;49.70;;;;;;5253113;28;20471;-51
2022/09/22 12:40:48;;;;;;;0.80;0.60;;;16.30;49.80;;;;;;5245110;28;20424;-53
2022/09/22 12:43:23;;;;;;;0.73;0.73;;;16.00;49.30;;;;;;5256256;28;20426;-52
2022/09/22 12:45:56;;;;;;;0.50;0.50;;;15.80;49.30;;;;;;5248990;28;20412;-54
2022/09/22 12:48:30;;;;;;;0.70;0.50;;;15.70;49.10;;;;;;5248201;28;20457;-54
2022/09/22 12:51:29;;;;;;;2.70;0.60;;;15.60;49.30;;;;;;5241165;28;20439;-52
2022/09/22 12:54:22;;;;;;;0.80;0.80;;;15.60;49.50;;;;;;5247627;28;20479;-52
2022/09/22 12:56:59;;;;;;;1.17;0.50;;;15.50;50.60;;;;;;5244896;28;20432;-54
2022/09/22 12:59:36;;;;;;;2.50;0.70;;;15.30;51.70;;;;;;5247088;28;20476;-53
2022/09/22 13:02:16;;;;;;;0.60;0.60;;;15.20;52.10;;;;;;5242954;28;20444;-52
2022/09/22 13:04:53;;;;;;;0.40;0.40;;;15.10;51.50;;;;;;5230453;28;20925;-52
2022/09/22 13:07:41;;;;;;;0.67;0.67;;;15.00;51.40;;;;;;5244798;28;20522;-54
2022/09/22 13:10:21;;;;;;;2.47;0.53;;;14.90;52.80;;;;;;5260819;28;20430;-50
2022/09/22 13:13:01;;;;;;;0.50;0.50;;;14.80;53.30;;;;;;5259482;28;20954;-52
2022/09/22 13:15:44;;;;;;;0.60;0.60;;;14.80;53.20;;;;;;5262855;28;20836;-52
2022/09/22 13:18:33;;;;;;;0.83;0.53;;;14.70;52.70;;;;;;5243966;28;20448;-55
2022/09/22 13:21:13;;;;;;;2.70;0.60;;;14.70;51.70;;;;;;5238099;28;20501;-52
2022/09/22 13:23:49;;;;;;;0.43;0.43;;;14.70;52.10;;;;;;5248082;28;20428;-53
2022/09/22 13:26:28;;;;;;;0.50;0.50;;;14.70;52.40;;;;;;5262271;28;20457;-54
2022/09/22 13:29:14;;;;;;;0.60;0.60;;;14.70;51.40;;;;;;5252295;28;20879;-47
2022/09/22 13:31:54;;;;;;;0.70;0.53;;;14.70;52.10;;;;;;5250822;28;20441;-48
2022/09/22 13:34:30;;;;;;;0.50;0.50;;;14.70;52.40;;;;;;5248286;28;20452;-48
2022/09/22 13:37:12;;;;;;;1.17;0.60;;;14.60;52.30;;;;;;5263088;28;20506;-47
2022/09/22 13:39:46;;;;;;;0.50;0.50;;;14.60;53.00;;;;;;5243889;28;20433;-51
2022/09/22 13:42:21;;;;;;;0.97;0.80;;;14.60;53.10;;;;;;5241057;28;20443;-49
2022/09/22 13:45:17;;;;;;;0.97;0.70;;;14.50;53.60;;;;;;5235797;28;20512;-49
2022/09/22 13:47:50;;;;;;;2.00;0.63;;;14.50;54.10;;;;;;5247535;28;20452;-49
2022/09/22 13:50:21;;;;;;;0.77;0.70;;;14.50;54.30;;;;;;5254135;28;20487;-47
2022/09/22 13:52:52;;;;;;;0.63;0.63;;;14.40;54.60;;;;;;5257544;28;20524;-47
2022/09/22 13:55:33;;;;;;;0.47;0.47;;;14.40;54.40;;;;;;5242042;28;20237;-49
2022/09/22 13:58:08;;;;;;;1.83;1.10;;;14.30;54.70;;;;;;5243226;28;20456;-48